Time;durP1;ratioP1;P1;durP2;ratioP2;P2;SDS_P1;SDS_P2;PMS_P1;PMS_P2;Temp;Humidity;BMP_temperature;BMP_pressure;BME280_temperature;BME280_humidity;BME280_pressure;Samples;Min_cycle;Max_cycle;Signal;HPM_P1;HPM_P2
2023/04/10 00:01:37;;;;;;;;;7.75;7.75;;;;;12.29;52.47;99596.78;5054820;28;46265;-76
2023/04/10 00:04:03;;;;;;;;;8.50;8.50;;;;;12.27;52.59;99598.63;5052786;28;45341;-77
2023/04/10 00:06:30;;;;;;;;;8.25;8.25;;;;;12.25;52.66;99597.84;5044313;28;45580;-76
2023/04/10 00:08:56;;;;;;;;;8.00;8.00;;;;;12.22;52.37;99601.47;5051296;28;45444;-77
2023/04/10 00:11:21;;;;;;;;;8.25;7.25;;;;;12.18;53.31;99591.94;5039730;28;45495;-76
2023/04/10 00:13:47;;;;;;;;;8.00;7.00;;;;;12.11;53.95;99601.00;5066625;27;45559;-76
2023/04/10 00:16:12;;;;;;;;;9.00;9.00;;;;;12.00;53.62;99611.16;5044005;28;45481;-77
2023/04/10 00:18:37;;;;;;;;;9.00;9.00;;;;;11.91;53.59;99602.69;5053970;28;45388;-77
2023/04/10 00:21:03;;;;;;;;;10.75;8.00;;;;;11.85;53.78;99609.09;5050657;28;46094;-76
2023/04/10 00:23:31;;;;;;;;;9.00;9.00;;;;;11.79;53.96;99604.88;5063663;28;45508;-77
2023/04/10 00:25:56;;;;;;;;;9.75;9.50;;;;;11.75;54.06;99608.50;5045212;28;45562;-77
2023/04/10 00:28:22;;;;;;;;;7.00;7.00;;;;;11.70;54.83;99599.91;5051008;28;45534;-76
2023/04/10 00:30:47;;;;;;;;;11.25;10.75;;;;;11.68;54.72;99600.91;5047478;28;45465;-78
2023/04/10 00:33:13;;;;;;;;;11.50;9.25;;;;;11.66;54.45;99602.72;5049746;28;45801;-79
2023/04/10 00:35:38;;;;;;;;;13.00;10.25;;;;;11.63;54.49;99595.78;5048633;28;45529;-78
2023/04/10 00:38:04;;;;;;;;;8.75;8.75;;;;;11.63;54.29;99597.56;5050811;28;45491;-78
2023/04/10 00:40:29;;;;;;;;;11.00;10.00;;;;;11.62;54.06;99596.69;5049956;28;45448;-79
2023/04/10 00:42:55;;;;;;;;;10.00;10.00;;;;;11.60;54.05;99595.00;5065972;28;45666;-79
2023/04/10 00:45:20;;;;;;;;;10.50;9.50;;;;;11.59;54.04;99593.28;5049958;28;45484;-78
2023/04/10 00:47:46;;;;;;;;;16.00;10.25;;;;;11.59;54.35;99590.66;5053073;28;45443;-77
2023/04/10 00:50:11;;;;;;;;;12.25;11.00;;;;;11.58;54.20;99599.50;5052585;28;45803;-78
2023/04/10 00:52:37;;;;;;;;;8.25;8.25;;;;;11.57;54.42;99598.63;5046832;28;45399;-79
2023/04/10 00:55:03;;;;;;;;;11.00;9.00;;;;;11.56;54.01;99606.63;5054152;28;45364;-78
2023/04/10 00:57:28;;;;;;;;;8.50;7.50;;;;;11.54;54.34;99596.97;5050937;28;45361;-78
2023/04/10 00:59:54;;;;;;;;;11.50;9.00;;;;;11.52;54.00;99600.59;5042912;28;45699;-77
2023/04/10 01:02:20;;;;;;;;;10.00;9.00;;;;;11.49;53.94;99593.63;5049828;28;45397;-78
2023/04/10 01:04:46;;;;;;;;;8.75;7.75;;;;;11.48;54.12;99591.06;5048107;28;45416;-78
2023/04/10 01:07:27;;;;;;;;;7.00;7.00;;;;;11.45;54.20;99599.06;5045923;28;45515;-78
2023/04/10 01:10:00;;;;;;;;;14.00;8.00;;;;;11.45;54.25;99597.31;5045984;28;46199;-79
2023/04/10 01:12:53;;;;;;;;;9.75;8.50;;;;;11.42;54.12;99596.53;5062675;28;45381;-78
2023/04/10 01:15:21;;;;;;;;;7.00;7.00;;;;;11.41;54.21;99592.19;5053558;28;45520;-78
2023/04/10 01:17:50;;;;;;;;;12.00;10.50;;;;;11.41;54.76;99584.25;5060780;28;45443;-78
2023/04/10 01:20:21;;;;;;;;;10.25;8.75;;;;;11.38;54.19;99587.91;5052419;27;46117;-78
2023/04/10 01:23:24;;;;;;;;;9.75;7.75;;;;;11.37;54.37;99587.94;5074426;27;45486;-79
2023/04/10 01:25:57;;;;;;;;;8.00;7.00;;;;;11.35;54.42;99595.91;5047944;28;45470;-79
2023/04/10 01:28:26;;;;;;;;;6.75;6.25;;;;;11.36;54.08;99599.41;5056789;28;45417;-78
2023/04/10 01:30:58;;;;;;;;;8.25;7.25;;;;;11.34;53.70;99603.88;5039792;28;45463;-77
2023/04/10 01:33:31;;;;;;;;;5.50;5.50;;;;;11.30;54.08;99603.13;5057468;28;45466;-78
2023/04/10 01:36:04;;;;;;;;;7.00;7.00;;;;;11.29;54.26;99598.75;5057523;28;45656;-79
2023/04/10 01:38:30;;;;;;;;;9.25;7.00;;;;;11.27;53.89;99592.69;5053856;28;45460;-78
2023/04/10 01:40:59;;;;;;;;;8.25;7.50;;;;;11.24;53.89;99590.13;5052247;28;45442;-78
2023/04/10 01:43:25;;;;;;;;;7.00;7.00;;;;;11.22;53.90;99594.63;5053899;28;45474;-78
2023/04/10 01:45:52;;;;;;;;;10.00;7.75;;;;;11.19;53.89;99592.09;5053819;28;45358;-78
2023/04/10 01:48:18;;;;;;;;;7.75;7.75;;;;;11.18;54.13;99593.00;5058172;28;45475;-79
2023/04/10 01:50:47;;;;;;;;;8.50;7.25;;;;;11.17;54.13;99589.50;5052473;28;47411;-78
2023/04/10 01:53:14;;;;;;;;;8.00;8.00;;;;;11.17;54.36;99591.28;5038784;28;45488;-78
2023/04/10 01:55:41;;;;;;;;;8.75;8.75;;;;;11.17;54.22;99593.94;5045803;28;45401;-78
2023/04/10 01:58:07;;;;;;;;;10.00;8.50;;;;;11.15;54.81;99587.84;5052970;28;45361;-79
2023/04/10 02:00:41;;;;;;;;;9.00;8.00;;;;;11.11;54.95;99592.34;5045926;28;45469;-79
2023/04/10 02:03:07;;;;;;;;;7.75;7.75;;;;;11.07;55.30;99587.22;5044062;28;45489;-79
2023/04/10 02:05:50;;;;;;;;;13.50;10.25;;;;;11.05;55.27;99591.72;5049794;28;45622;-78
2023/04/10 02:08:34;;;;;;;;;9.00;8.50;;;;;11.01;55.26;99590.97;5044440;28;45482;-78
2023/04/10 02:11:41;;;;;;;;;8.00;7.00;;;;;10.99;55.33;99592.78;5044183;28;45472;-78
2023/04/10 02:14:10;;;;;;;;;7.75;7.00;;;;;10.96;55.38;99589.38;5050759;28;45581;-78
2023/04/10 02:16:37;;;;;;;;;8.25;7.75;;;;;10.96;55.68;99594.66;5065222;28;45493;-78
2023/04/10 02:19:05;;;;;;;;;12.50;10.50;;;;;10.93;55.66;99589.47;5049988;28;45598;-78
2023/04/10 02:21:32;;;;;;;;;7.75;7.75;;;;;10.92;55.69;99595.66;5052782;28;46488;-79
2023/04/10 02:23:59;;;;;;;;;8.75;8.75;;;;;10.89;55.86;99596.66;5052341;28;45377;-78
2023/04/10 02:26:24;;;;;;;;;12.50;10.50;;;;;10.86;56.18;99595.91;5060410;28;45373;-78
2023/04/10 02:28:50;;;;;;;;;11.00;11.00;;;;;10.84;56.29;99601.22;5065219;28;45485;-79
2023/04/10 02:31:16;;;;;;;;;9.25;9.25;;;;;10.81;56.22;99601.31;5040699;28;46403;-78
2023/04/10 02:33:42;;;;;;;;;10.50;9.25;;;;;10.81;55.63;99609.22;5045772;28;45530;-78
2023/04/10 02:36:07;;;;;;;;;11.25;9.00;;;;;10.77;56.10;99607.59;5050394;28;45366;-78
2023/04/10 02:38:33;;;;;;;;;7.75;7.75;;;;;10.74;56.38;99610.31;5053360;28;45952;-78
2023/04/10 02:40:58;;;;;;;;;10.50;8.25;;;;;10.71;56.50;99605.19;5053364;28;45494;-78
2023/04/10 02:43:24;;;;;;;;;9.25;8.50;;;;;10.69;56.49;99617.56;5052124;28;45482;-78
2023/04/10 02:45:50;;;;;;;;;9.50;9.50;;;;;10.67;56.73;99614.09;5053335;28;45494;-78
2023/04/10 02:48:15;;;;;;;;;7.00;7.00;;;;;10.64;56.90;99608.91;5051094;28;45445;-78
2023/04/10 02:50:44;;;;;;;;;12.75;11.00;;;;;10.60;57.44;99613.41;5047661;28;46603;-77
2023/04/10 02:53:12;;;;;;;;;11.50;11.50;;;;;10.57;58.10;99621.44;5052280;28;45460;-78
2023/04/10 02:55:37;;;;;;;;;16.00;11.25;;;;;10.52;58.43;99623.38;5051608;28;45471;-78
2023/04/10 02:58:02;;;;;;;;;12.50;11.75;;;;;10.49;58.59;99626.97;5067230;28;45517;-78
2023/04/10 03:00:28;;;;;;;;;12.00;10.00;;;;;10.48;58.76;99635.78;5051994;28;45549;-78
2023/04/10 03:02:54;;;;;;;;;13.50;13.25;;;;;10.47;59.00;99631.41;5061821;28;45445;-79
2023/04/10 03:05:19;;;;;;;;;13.25;10.75;;;;;10.45;58.96;99635.88;5055165;28;45482;-78
2023/04/10 03:07:45;;;;;;;;;11.75;11.25;;;;;10.42;59.23;99645.63;5071189;27;45421;-78
2023/04/10 03:10:11;;;;;;;;;8.50;8.50;;;;;10.41;58.59;99638.63;5055776;28;46393;-79
2023/04/10 03:12:36;;;;;;;;;7.75;7.25;;;;;10.41;58.16;99638.63;5055980;28;45344;-78
2023/04/10 03:15:02;;;;;;;;;9.25;9.25;;;;;10.39;57.80;99643.13;5054425;28;45940;-78
2023/04/10 03:17:27;;;;;;;;;8.25;7.00;;;;;10.36;57.24;99645.84;5061497;28;45852;-79
2023/04/10 03:19:53;;;;;;;;;7.00;7.00;;;;;10.35;56.83;99646.75;5054045;28;45598;-78
2023/04/10 03:22:18;;;;;;;;;9.50;8.25;;;;;10.31;56.81;99648.63;5059853;28;45429;-78
2023/04/10 03:24:43;;;;;;;;;7.25;6.00;;;;;10.27;56.82;99646.97;5059281;27;45445;-79
2023/04/10 03:27:09;;;;;;;;;7.00;6.00;;;;;10.24;56.78;99644.44;5055488;28;45373;-78
2023/04/10 03:29:34;;;;;;;;;15.00;8.25;;;;;10.23;57.24;99642.69;5068928;28;46878;-78
2023/04/10 03:32:00;;;;;;;;;10.25;10.00;;;;;10.22;58.77;99642.78;5055789;28;45521;-78
2023/04/10 03:34:25;;;;;;;;;12.75;11.50;;;;;10.19;58.95;99643.72;5053328;28;45530;-78
2023/04/10 03:36:50;;;;;;;;;5.00;0.75;;;;;10.19;59.03;99643.72;5054921;28;45456;-78
2023/04/10 03:39:16;;;;;;;;;11.00;11.00;;;;;10.17;59.22;99642.00;5054332;28;46575;-78
2023/04/10 03:41:41;;;;;;;;;12.00;10.00;;;;;10.15;59.37;99642.91;5055150;28;45470;-78
2023/04/10 03:44:06;;;;;;;;;10.50;8.50;;;;;10.15;59.35;99642.91;5052382;28;45446;-78
2023/04/10 03:46:32;;;;;;;;;10.00;10.00;;;;;10.12;59.59;99642.13;5055114;28;45637;-78
2023/04/10 03:48:57;;;;;;;;;12.25;11.25;;;;;10.11;59.19;99651.81;5070241;28;48088;-78
2023/04/10 03:51:23;;;;;;;;;11.00;10.75;;;;;10.11;59.41;99649.16;5043065;28;45559;-78
2023/04/10 03:53:49;;;;;;;;;11.67;11.67;;;;;10.10;59.46;99649.22;5051283;28;45438;-78
2023/04/10 03:56:15;;;;;;;;;11.75;11.00;;;;;10.10;59.60;99652.72;5053091;28;45463;-78
2023/04/10 03:58:40;;;;;;;;;10.00;9.75;;;;;10.11;59.64;99648.31;5052661;28;45978;-78
2023/04/10 04:01:06;;;;;;;;;10.75;10.50;;;;;10.09;59.86;99648.34;5055637;28;45415;-78
2023/04/10 04:03:32;;;;;;;;;10.00;7.50;;;;;10.07;59.29;99650.16;5053731;28;45431;-78
2023/04/10 04:05:57;;;;;;;;;9.00;7.00;;;;;10.07;59.31;99644.03;5048231;28;45320;-78
2023/04/10 04:08:22;;;;;;;;;9.00;9.00;;;;;10.04;59.09;99647.66;5053408;28;46605;-78
2023/04/10 04:10:48;;;;;;;;;11.75;11.00;;;;;9.99;58.76;99643.41;5053088;28;45461;-78
2023/04/10 04:13:13;;;;;;;;;11.00;10.00;;;;;9.94;58.46;99642.69;5070086;28;45514;-78
2023/04/10 04:15:39;;;;;;;;;9.75;9.75;;;;;9.92;58.95;99650.63;5051815;28;45356;-78
2023/04/10 04:18:04;;;;;;;;;9.00;7.67;;;;;9.89;58.67;99645.44;5052844;28;45455;-78
2023/04/10 04:20:29;;;;;;;;;10.00;10.00;;;;;9.88;58.95;99651.63;5051612;28;45806;-78
2023/04/10 04:22:55;;;;;;;;;10.00;10.00;;;;;9.84;58.87;99654.41;5054421;28;45427;-78
2023/04/10 04:25:20;;;;;;;;;11.00;10.00;;;;;9.81;58.99;99660.59;5051960;28;45481;-78
2023/04/10 04:27:45;;;;;;;;;9.50;9.00;;;;;9.77;58.94;99662.47;5053893;28;46109;-78
2023/04/10 04:30:11;;;;;;;;;11.00;11.00;;;;;9.76;58.54;99666.00;5054026;28;45479;-78
2023/04/10 04:32:37;;;;;;;;;11.25;9.25;;;;;9.70;58.77;99660.91;5054771;28;45468;-78
2023/04/10 04:35:02;;;;;;;;;10.67;10.67;;;;;9.68;59.81;99664.50;5053258;28;45522;-78
2023/04/10 04:37:27;;;;;;;;;12.00;11.33;;;;;9.67;59.33;99660.13;5054557;28;46345;-78
2023/04/10 04:39:53;;;;;;;;;8.25;8.25;;;;;9.65;59.33;99661.94;5053514;28;45471;-78
2023/04/10 04:42:18;;;;;;;;;10.00;9.75;;;;;9.62;59.74;99667.28;5069875;28;46134;-78
2023/04/10 04:44:44;;;;;;;;;11.25;11.25;;;;;9.61;59.57;99670.81;5053005;28;45430;-78
2023/04/10 04:47:09;;;;;;;;;11.00;10.33;;;;;9.59;59.86;99672.63;5054809;28;45469;-78
2023/04/10 04:49:35;;;;;;;;;10.33;10.33;;;;;9.58;60.01;99678.78;5054386;28;45464;-78
2023/04/10 04:52:00;;;;;;;;;10.50;7.75;;;;;9.56;59.91;99673.56;5054477;28;45408;-78
2023/04/10 04:54:25;;;;;;;;;12.00;10.00;;;;;9.54;59.81;99675.41;5053390;28;45526;-78
2023/04/10 04:56:51;;;;;;;;;9.00;6.00;;;;;9.54;59.42;99675.41;5069465;28;46125;-78
2023/04/10 04:59:16;;;;;;;;;8.67;8.67;;;;;9.53;59.44;99672.81;5050515;28;45520;-78
2023/04/10 05:01:41;;;;;;;;;10.33;9.67;;;;;9.50;59.38;99668.50;5052906;28;45815;-78
2023/04/10 05:04:07;;;;;;;;;11.00;10.00;;;;;9.48;59.23;99670.28;5052389;28;45341;-78
2023/04/10 05:06:32;;;;;;;;;10.00;10.00;;;;;9.48;59.16;99675.56;5054022;28;45700;-78
2023/04/10 05:08:57;;;;;;;;;12.33;9.33;;;;;9.45;59.18;99675.63;5053853;28;45472;-78
2023/04/10 05:11:23;;;;;;;;;9.50;8.50;;;;;9.43;58.84;99677.44;5052291;28;45742;-78
2023/04/10 05:13:48;;;;;;;;;10.75;9.50;;;;;9.43;59.10;99677.44;5050995;28;45527;-78
2023/04/10 05:16:14;;;;;;;;;9.75;6.75;;;;;9.43;59.40;99680.94;5053322;28;45593;-78
2023/04/10 05:18:40;;;;;;;;;12.67;11.00;;;;;9.44;59.41;99690.56;5050457;28;45632;-78
2023/04/10 05:21:06;;;;;;;;;12.33;10.33;;;;;9.47;59.18;99688.75;5052494;28;45434;-79
2023/04/10 05:23:31;;;;;;;;;12.00;12.00;;;;;9.48;58.99;99685.22;5064170;28;45443;-78
2023/04/10 05:25:57;;;;;;;;;12.67;10.33;;;;;9.49;59.17;99687.81;5052568;28;46182;-78
2023/04/10 05:28:22;;;;;;;;;8.67;7.67;;;;;9.50;58.95;99692.19;5064002;28;45434;-78
2023/04/10 05:30:47;;;;;;;;;12.67;10.00;;;;;9.50;59.21;99686.91;5049225;28;45507;-78
2023/04/10 05:33:13;;;;;;;;;10.67;9.33;;;;;9.51;59.07;99687.78;5052937;28;45517;-78
2023/04/10 05:35:38;;;;;;;;;12.00;11.00;;;;;9.52;59.12;99686.88;5049463;28;45515;-78
2023/04/10 05:38:04;;;;;;;;;9.50;9.50;;;;;9.53;58.70;99691.25;5044305;28;45477;-78
2023/04/10 05:40:30;;;;;;;;;13.00;11.33;;;;;9.53;59.65;99697.38;5052852;28;45421;-78
2023/04/10 05:42:55;;;;;;;;;10.00;10.00;;;;;9.52;59.19;99690.38;5052301;28;45527;-68
2023/04/10 05:45:20;;;;;;;;;12.67;12.00;;;;;9.57;59.22;99693.72;5048502;28;47271;-73
2023/04/10 05:47:46;;;;;;;;;12.67;11.33;;;;;9.63;59.12;99692.72;5053699;28;45430;-71
2023/04/10 05:50:11;;;;;;;;;12.33;11.00;;;;;9.69;59.33;99695.19;5052023;28;45594;-70
2023/04/10 05:52:36;;;;;;;;;14.33;13.67;;;;;9.77;59.44;99696.69;5040292;28;45463;-71
2023/04/10 05:55:02;;;;;;;;;14.33;12.67;;;;;9.83;59.23;99692.16;5045451;28;47913;-71
2023/04/10 05:57:29;;;;;;;;;12.33;10.67;;;;;9.89;58.85;99702.50;5049562;28;45369;-71
2023/04/10 05:59:54;;;;;;;;;12.00;10.00;;;;;9.93;59.04;99699.75;5042331;28;45390;-71
2023/04/10 06:02:20;;;;;;;;;10.67;10.33;;;;;9.98;58.85;99702.25;5050564;28;45527;-71
2023/04/10 06:04:46;;;;;;;;;10.67;10.00;;;;;10.03;58.74;99705.66;5060730;28;45411;-71
2023/04/10 06:07:11;;;;;;;;;12.67;11.33;;;;;10.07;58.67;99712.53;5049369;27;45452;-71
2023/04/10 06:09:36;;;;;;;;;13.67;11.00;;;;;10.08;58.33;99704.59;5036960;28;45867;-71
2023/04/10 06:12:02;;;;;;;;;12.00;11.00;;;;;10.10;58.28;99712.44;5049962;28;45615;-73
2023/04/10 06:14:27;;;;;;;;;10.00;10.00;;;;;10.12;58.32;99715.91;5048211;28;46013;-72
2023/04/10 06:16:53;;;;;;;;;9.67;9.67;;;;;10.17;58.42;99714.00;5054343;27;45392;-72
2023/04/10 06:19:18;;;;;;;;;11.00;10.00;;;;;10.23;58.38;99718.25;5049692;28;45596;-71
2023/04/10 06:21:43;;;;;;;;;10.00;10.00;;;;;10.26;58.56;99718.16;5052376;28;45570;-71
2023/04/10 06:24:09;;;;;;;;;14.00;12.67;;;;;10.33;58.68;99725.00;5050971;28;46242;-71
2023/04/10 06:26:34;;;;;;;;;11.33;10.00;;;;;10.38;58.60;99715.19;5057113;28;45515;-72
2023/04/10 06:29:00;;;;;;;;;13.00;12.00;;;;;10.43;58.30;99729.06;5050396;28;45619;-72
2023/04/10 06:31:26;;;;;;;;;12.00;12.00;;;;;10.46;57.87;99726.34;5042026;28;45501;-72
2023/04/10 06:33:51;;;;;;;;;11.67;11.67;;;;;10.49;57.98;99724.50;5052780;28;45503;-72
2023/04/10 06:36:16;;;;;;;;;13.25;11.00;;;;;10.53;57.82;99721.78;5049524;28;45515;-72
2023/04/10 06:38:42;;;;;;;;;13.33;12.00;;;;;10.54;57.80;99727.00;5051872;28;45399;-70
2023/04/10 06:41:07;;;;;;;;;13.00;13.00;;;;;10.56;58.33;99722.50;5052563;28;45463;-73
2023/04/10 06:43:34;;;;;;;;;16.33;15.00;;;;;10.58;58.45;99719.84;5055508;28;45557;-72
2023/04/10 06:46:00;;;;;;;;;18.00;18.00;;;;;10.61;58.66;99720.63;5054072;28;45514;-72
2023/04/10 06:48:25;;;;;;;;;12.67;12.00;;;;;10.65;58.86;99718.75;5071250;27;45496;-72
2023/04/10 06:50:51;;;;;;;;;16.33;16.00;;;;;10.70;59.00;99715.06;5054916;28;45514;-72
2023/04/10 06:53:16;;;;;;;;;15.67;15.33;;;;;10.76;58.90;99720.13;5055910;28;45454;-72
2023/04/10 06:55:41;;;;;;;;;14.33;14.33;;;;;10.80;58.78;99718.28;5054986;28;45463;-73
2023/04/10 06:58:07;;;;;;;;;14.00;14.00;;;;;10.82;58.70;99722.59;5056770;28;45466;-71
2023/04/10 07:00:32;;;;;;;;;18.33;16.00;;;;;10.85;58.79;99721.63;5043368;28;45445;-72
2023/04/10 07:02:57;;;;;;;;;22.67;18.00;;;;;10.89;59.06;99725.91;5054799;28;46528;-72
2023/04/10 07:05:23;;;;;;;;;17.33;14.67;;;;;10.93;58.88;99709.06;5055033;28;45546;-72
2023/04/10 07:07:49;;;;;;;;;14.33;14.00;;;;;11.00;58.80;99707.09;5065656;27;45500;-72
2023/04/10 07:10:15;;;;;;;;;16.67;15.67;;;;;11.06;58.76;99712.19;5046239;28;45741;-72
2023/04/10 07:12:40;;;;;;;;;17.67;15.00;;;;;11.09;58.65;99709.41;5055815;28;46557;-72
2023/04/10 07:15:07;;;;;;;;;13.33;13.33;;;;;11.12;58.42;99710.19;5049338;28;45653;-72
2023/04/10 07:17:32;;;;;;;;;14.25;12.50;;;;;11.15;58.20;99701.31;5046445;28;45469;-72
2023/04/10 07:19:58;;;;;;;;;13.00;12.00;;;;;11.18;58.02;99696.78;5046358;28;45373;-72
2023/04/10 07:22:23;;;;;;;;;14.50;13.00;;;;;11.20;58.02;99696.75;5053378;28;45463;-72
2023/04/10 07:24:49;;;;;;;;;12.00;11.00;;;;;11.23;57.99;99691.34;5053311;28;45426;-72
2023/04/10 07:27:15;;;;;;;;;14.00;12.00;;;;;11.25;58.18;99697.44;5048621;28;45358;-72
2023/04/10 07:29:41;;;;;;;;;14.00;13.00;;;;;11.28;58.14;99697.34;5070022;28;45366;-72
2023/04/10 07:32:06;;;;;;;;;13.00;13.00;;;;;11.32;58.05;99698.97;5049654;28;46213;-73
2023/04/10 07:34:32;;;;;;;;;13.50;12.50;;;;;11.36;57.92;99691.81;5054634;28;45747;-72
2023/04/10 07:36:57;;;;;;;;;12.50;12.50;;;;;11.38;57.82;99695.25;5054113;28;45484;-72
2023/04/10 07:39:23;;;;;;;;;8.75;7.25;;;;;11.42;57.54;99696.88;5053244;28;45499;-72
2023/04/10 07:41:48;;;;;;;;;14.00;14.00;;;;;11.45;57.81;99689.72;5055275;28;45900;-71
2023/04/10 07:44:13;;;;;;;;;12.25;12.00;;;;;11.51;57.74;99692.16;5050393;28;45345;-71
2023/04/10 07:46:40;;;;;;;;;10.33;10.00;;;;;11.59;57.96;99697.13;5057483;28;45892;-71
2023/04/10 07:49:06;;;;;;;;;14.67;12.00;;;;;11.64;57.32;99694.34;5053547;28;45528;-71
2023/04/10 07:51:31;;;;;;;;;14.50;14.00;;;;;11.69;57.24;99692.41;5055431;28;46350;-72
2023/04/10 07:53:56;;;;;;;;;5.00;3.25;;;;;11.76;57.01;99692.16;5054619;28;45523;-71
2023/04/10 07:56:22;;;;;;;;;15.50;13.75;;;;;11.81;56.90;99692.00;5054599;28;45335;-70
2023/04/10 07:58:48;;;;;;;;;13.25;11.25;;;;;11.88;56.46;99696.16;5068137;28;45514;-70
2023/04/10 08:01:14;;;;;;;;;14.00;14.00;;;;;11.94;56.64;99701.19;5044065;28;45523;-72
2023/04/10 08:03:45;;;;;;;;;12.50;12.25;;;;;12.01;56.67;99700.06;5054621;28;45332;-70
2023/04/10 08:06:11;;;;;;;;;16.50;14.25;;;;;12.09;56.31;99699.78;5055491;28;45380;-69
2023/04/10 08:08:41;;;;;;;;;15.00;15.00;;;;;12.15;56.10;99694.28;5053075;28;45435;-69
2023/04/10 08:11:25;;;;;;;;;14.00;13.00;;;;;12.23;56.14;99690.41;5054751;28;45605;-71
2023/04/10 08:13:55;;;;;;;;;12.25;11.50;;;;;12.31;55.67;99695.41;5054335;28;45380;-71
2023/04/10 08:16:25;;;;;;;;;15.00;13.50;;;;;12.38;55.46;99693.41;5048969;28;45520;-69
2023/04/10 08:18:51;;;;;;;;;12.25;12.25;;;;;12.44;55.14;99691.38;5049139;28;45313;-71
2023/04/10 08:21:18;;;;;;;;;11.00;11.00;;;;;12.52;55.08;99691.97;5070066;28;45518;-71
2023/04/10 08:23:45;;;;;;;;;14.00;11.25;;;;;12.60;54.41;99694.28;5062107;28;45509;-69
2023/04/10 08:26:12;;;;;;;;;14.50;13.25;;;;;12.68;54.36;99689.56;5052964;28;45369;-70
2023/04/10 08:28:38;;;;;;;;;12.25;12.25;;;;;12.75;54.35;99680.44;5054456;28;45479;-69
2023/04/10 08:31:03;;;;;;;;;12.25;11.00;;;;;12.83;53.97;99680.16;5054045;28;46322;-71
2023/04/10 08:33:29;;;;;;;;;11.25;9.25;;;;;12.89;53.66;99680.78;5046651;28;46379;-70
2023/04/10 08:35:54;;;;;;;;;12.00;10.00;;;;;12.97;52.95;99679.59;5045760;28;45462;-69
2023/04/10 08:38:22;;;;;;;;;12.25;12.00;;;;;13.05;53.00;99680.16;5054306;28;45501;-69
2023/04/10 08:40:48;;;;;;;;;11.25;10.25;;;;;13.12;52.88;99687.75;5040834;28;45631;-70
2023/04/10 08:43:13;;;;;;;;;11.75;11.75;;;;;13.20;53.16;99675.13;5054245;28;45396;-70
2023/04/10 08:45:41;;;;;;;;;10.00;8.50;;;;;13.28;52.84;99680.94;5042806;28;45372;-69
2023/04/10 08:48:09;;;;;;;;;12.00;11.00;;;;;13.37;52.66;99676.19;5053583;28;45441;-69
2023/04/10 08:50:44;;;;;;;;;12.50;10.00;;;;;13.46;52.33;99681.09;5053724;28;46285;-69
2023/04/10 08:53:14;;;;;;;;;11.25;9.50;;;;;13.54;52.18;99671.03;5042611;28;45361;-70
2023/04/10 08:55:40;;;;;;;;;11.50;11.00;;;;;13.63;52.05;99670.63;5049772;28;45519;-70
2023/04/10 08:58:06;;;;;;;;;11.00;10.25;;;;;13.72;51.56;99675.53;5054711;28;45409;-70
2023/04/10 09:00:33;;;;;;;;;9.00;9.00;;;;;13.81;51.44;99671.59;5051136;28;48234;-71
2023/04/10 09:02:59;;;;;;;;;10.25;10.25;;;;;13.89;51.21;99669.47;5050766;28;45365;-71
2023/04/10 09:05:27;;;;;;;;;11.00;9.75;;;;;13.97;51.22;99673.50;5060282;28;45434;-71
2023/04/10 09:07:52;;;;;;;;;10.25;9.00;;;;;14.06;50.75;99671.38;5043476;28;45419;-71
2023/04/10 09:10:17;;;;;;;;;9.50;8.00;;;;;14.14;50.50;99672.72;5051594;28;45689;-70
2023/04/10 09:12:45;;;;;;;;;9.50;9.50;;;;;14.21;50.03;99668.00;5044129;28;45463;-71
2023/04/10 09:15:11;;;;;;;;;10.25;10.00;;;;;14.26;50.33;99664.19;5052468;28;45438;-71
2023/04/10 09:17:37;;;;;;;;;11.00;11.00;;;;;14.33;49.88;99673.59;5041403;28;45603;-71
2023/04/10 09:20:20;;;;;;;;;8.75;8.25;;;;;14.41;49.65;99669.78;5048410;28;45602;-71
2023/04/10 09:22:46;;;;;;;;;10.00;9.00;;;;;14.47;49.56;99659.72;5042352;28;46072;-71
2023/04/10 09:25:31;;;;;;;;;7.25;7.25;;;;;14.54;49.01;99657.66;5050995;28;45663;-71
2023/04/10 09:28:15;;;;;;;;;9.50;7.50;;;;;14.64;48.93;99656.25;5053365;28;45512;-71
2023/04/10 09:30:41;;;;;;;;;8.75;8.75;;;;;14.70;48.89;99660.44;5051398;28;45435;-71
2023/04/10 09:33:36;;;;;;;;;5.75;5.75;;;;;14.79;48.24;99654.66;5053250;28;45381;-71
2023/04/10 09:36:02;;;;;;;;;10.00;9.00;;;;;14.84;48.89;99644.69;5032575;28;45455;-71
2023/04/10 09:38:28;;;;;;;;;13.00;10.00;;;;;14.91;49.04;99641.63;5051581;28;45395;-71
2023/04/10 09:41:05;;;;;;;;;8.50;8.50;;;;;15.02;48.74;99638.47;5052213;28;46024;-71
2023/04/10 09:43:31;;;;;;;;;10.50;10.00;;;;;15.08;48.74;99634.66;5045295;28;45434;-71
2023/04/10 09:45:57;;;;;;;;;9.00;9.00;;;;;15.13;48.80;99635.25;5044893;28;45373;-70
2023/04/10 09:48:24;;;;;;;;;8.00;6.75;;;;;15.19;48.05;99627.00;5068203;28;45554;-70
2023/04/10 09:50:50;;;;;;;;;11.00;9.50;;;;;15.29;47.52;99625.56;5052796;28;47304;-70
2023/04/10 09:53:19;;;;;;;;;5.00;5.00;;;;;15.40;47.77;99617.06;5051561;28;45492;-70
2023/04/10 09:55:49;;;;;;;;;7.00;6.00;;;;;15.54;47.53;99614.56;5050859;28;45548;-71
2023/04/10 09:58:16;;;;;;;;;7.00;5.50;;;;;15.66;46.39;99612.13;5058185;28;45472;-70
2023/04/10 10:00:43;;;;;;;;;8.75;7.00;;;;;15.79;46.53;99609.66;5053073;27;45545;-70
2023/04/10 10:03:16;;;;;;;;;10.50;9.00;;;;;15.90;46.06;99611.78;5053186;28;45412;-71
2023/04/10 10:05:44;;;;;;;;;9.25;9.25;;;;;16.05;45.71;99609.13;5046943;28;45503;-70
2023/04/10 10:08:11;;;;;;;;;6.00;6.00;;;;;16.21;43.88;99606.50;5052637;28;45467;-70
2023/04/10 10:10:44;;;;;;;;;5.50;5.50;;;;;16.36;43.82;99608.28;5052155;28;46171;-70
2023/04/10 10:13:16;;;;;;;;;6.80;5.60;;;;;16.47;43.58;99599.69;5047263;28;45376;-70
2023/04/10 10:15:50;;;;;;;;;5.50;5.50;;;;;16.55;43.09;99594.81;5047873;28;45530;-70
2023/04/10 10:18:22;;;;;;;;;9.00;7.50;;;;;16.66;43.10;99595.09;5050774;28;45532;-70
2023/04/10 10:20:49;;;;;;;;;6.00;6.00;;;;;16.80;43.41;99593.41;5048303;28;46453;-71
2023/04/10 10:23:17;;;;;;;;;8.60;6.60;;;;;16.91;42.32;99588.34;5052132;28;45468;-70
2023/04/10 10:25:44;;;;;;;;;5.00;5.00;;;;;17.00;42.22;99580.66;5052932;28;45534;-70
2023/04/10 10:28:12;;;;;;;;;5.75;5.75;;;;;17.11;42.84;99580.00;5069836;28;45500;-70
2023/04/10 10:30:37;;;;;;;;;7.00;7.00;;;;;17.24;42.24;99580.16;5054922;28;46597;-70
2023/04/10 10:33:06;;;;;;;;;6.25;5.25;;;;;17.41;42.13;99578.19;5052699;28;45402;-72
2023/04/10 10:35:33;;;;;;;;;6.00;6.00;;;;;17.57;41.66;99572.78;5054756;28;45384;-70
2023/04/10 10:38:00;;;;;;;;;5.00;5.00;;;;;17.70;41.05;99573.75;5051450;28;45701;-70
2023/04/10 10:40:43;;;;;;;;;8.50;5.75;;;;;17.77;40.33;99567.09;5051747;28;46076;-71
2023/04/10 10:43:43;;;;;;;;;3.40;3.00;;;;;17.85;40.86;99563.94;5049156;28;45409;-71
2023/04/10 10:46:16;;;;;;;;;5.50;5.25;;;;;18.01;40.01;99561.16;5048697;28;45512;-72
2023/04/10 10:48:55;;;;;;;;;4.00;4.00;;;;;18.13;40.02;99558.56;5052973;28;45337;-71
2023/04/10 10:51:20;;;;;;;;;4.60;4.60;;;;;18.22;39.42;99553.59;5054856;28;45474;-71
2023/04/10 10:53:45;;;;;;;;;9.00;6.00;;;;;18.36;40.34;99557.09;5051247;28;45421;-71
2023/04/10 10:56:17;;;;;;;;;7.00;6.00;;;;;18.53;40.02;99544.44;5047030;28;45445;-71
2023/04/10 10:58:46;;;;;;;;;6.50;6.00;;;;;18.68;39.19;99547.00;5055022;28;45358;-72
2023/04/10 11:01:12;;;;;;;;;6.00;6.00;;;;;18.84;38.63;99544.16;5058598;28;45420;-71
2023/04/10 11:03:38;;;;;;;;;5.50;4.00;;;;;19.02;38.81;99539.38;5047817;28;45454;-71
2023/04/10 11:06:07;;;;;;;;;6.00;6.00;;;;;19.17;38.78;99535.66;5060682;28;45377;-72
2023/04/10 11:08:36;;;;;;;;;4.50;3.25;;;;;19.35;37.37;99534.41;5045538;27;45419;-70
2023/04/10 11:11:04;;;;;;;;;5.40;5.00;;;;;19.44;37.53;99530.22;5049114;28;45613;-71
2023/04/10 11:13:34;;;;;;;;;4.00;4.00;;;;;19.57;36.84;99524.91;5054927;28;45363;-73
2023/04/10 11:16:01;;;;;;;;;2.00;1.00;;;;;19.75;37.54;99529.81;5050237;28;45375;-71
2023/04/10 11:18:45;;;;;;;;;5.00;5.00;;;;;19.96;37.10;99519.38;5054918;28;45562;-71
2023/04/10 11:21:12;;;;;;;;;5.50;5.50;;;;;20.12;36.42;99513.75;5041408;28;46316;-70
2023/04/10 11:23:58;;;;;;;;;5.40;5.40;;;;;20.21;36.09;99519.31;5051152;28;45445;-71
2023/04/10 11:26:32;;;;;;;;;4.00;4.00;;;;;20.20;35.39;99519.41;5050041;28;45519;-71
2023/04/10 11:28:58;;;;;;;;;4.75;4.75;;;;;20.14;34.74;99519.84;5053590;28;45470;-71